sensor_id;sensor_type;location;lat;lon;timestamp;temperature;humidity
3023;DHT22;1521;53.584;9.938;2023-05-16T00:00:33;10.50;99.90
3023;DHT22;1521;53.584;9.938;2023-05-16T00:03:00;10.50;99.90
3023;DHT22;1521;53.584;9.938;2023-05-16T00:05:27;10.50;99.90
3023;DHT22;1521;53.584;9.938;2023-05-16T00:07:52;10.50;99.90
3023;DHT22;1521;53.584;9.938;2023-05-16T00:10:18;10.50;99.90
3023;DHT22;1521;53.584;9.938;2023-05-16T00:12:44;10.50;99.90
3023;DHT22;1521;53.584;9.938;2023-05-16T00:15:11;10.50;99.90
3023;DHT22;1521;53.584;9.938;2023-05-16T00:17:39;10.50;99.90
3023;DHT22;1521;53.584;9.938;2023-05-16T00:20:05;10.50;99.90
3023;DHT22;1521;53.584;9.938;2023-05-16T00:22:36;10.50;99.90
3023;DHT22;1521;53.584;9.938;2023-05-16T00:25:02;10.50;99.90
3023;DHT22;1521;53.584;9.938;2023-05-16T00:27:28;10.60;99.90
3023;DHT22;1521;53.584;9.938;2023-05-16T00:29:54;10.60;94.40
3023;DHT22;1521;53.584;9.938;2023-05-16T00:32:20;10.60;96.80
3023;DHT22;1521;53.584;9.938;2023-05-16T00:34:46;10.60;91.80
3023;DHT22;1521;53.584;9.938;2023-05-16T00:37:12;10.60;93.30
3023;DHT22;1521;53.584;9.938;2023-05-16T00:39:38;10.70;81.60
3023;DHT22;1521;53.584;9.938;2023-05-16T00:42:03;10.60;92.20
3023;DHT22;1521;53.584;9.938;2023-05-16T00:44:29;10.60;88.00
3023;DHT22;1521;53.584;9.938;2023-05-16T00:46:55;10.70;80.90
3023;DHT22;1521;53.584;9.938;2023-05-16T00:49:21;10.80;72.10
3023;DHT22;1521;53.584;9.938;2023-05-16T00:51:47;10.80;62.60
3023;DHT22;1521;53.584;9.938;2023-05-16T00:54:13;10.80;81.80
3023;DHT22;1521;53.584;9.938;2023-05-16T00:56:39;10.80;74.70
3023;DHT22;1521;53.584;9.938;2023-05-16T00:59:04;10.70;86.00
3023;DHT22;1521;53.584;9.938;2023-05-16T01:01:30;10.80;93.40
3023;DHT22;1521;53.584;9.938;2023-05-16T01:03:57;10.80;86.80
3023;DHT22;1521;53.584;9.938;2023-05-16T01:06:22;10.70;94.80
3023;DHT22;1521;53.584;9.938;2023-05-16T01:08:48;10.80;99.80
3023;DHT22;1521;53.584;9.938;2023-05-16T01:13:59;10.90;93.90
3023;DHT22;1521;53.584;9.938;2023-05-16T01:16:41;10.90;70.20
3023;DHT22;1521;53.584;9.938;2023-05-16T01:24:32;10.80;85.00
3023;DHT22;1521;53.584;9.938;2023-05-16T01:26:59;10.80;99.90
3023;DHT22;1521;53.584;9.938;2023-05-16T01:29:25;10.90;95.70
3023;DHT22;1521;53.584;9.938;2023-05-16T01:31:51;10.90;85.00
3023;DHT22;1521;53.584;9.938;2023-05-16T01:34:16;10.80;99.90
3023;DHT22;1521;53.584;9.938;2023-05-16T01:36:58;10.90;99.90
3023;DHT22;1521;53.584;9.938;2023-05-16T01:39:40;11.00;99.90
3023;DHT22;1521;53.584;9.938;2023-05-16T01:42:11;11.00;99.90
3023;DHT22;1521;53.584;9.938;2023-05-16T01:44:44;10.90;99.90
3023;DHT22;1521;53.584;9.938;2023-05-16T01:47:12;11.00;99.90
3023;DHT22;1521;53.584;9.938;2023-05-16T01:49:45;10.90;99.90
3023;DHT22;1521;53.584;9.938;2023-05-16T01:52:15;10.90;99.90
3023;DHT22;1521;53.584;9.938;2023-05-16T01:54:47;10.90;99.90
3023;DHT22;1521;53.584;9.938;2023-05-16T01:57:13;10.80;99.90
3023;DHT22;1521;53.584;9.938;2023-05-16T01:59:40;10.70;99.90
3023;DHT22;1521;53.584;9.938;2023-05-16T02:02:07;10.70;99.90
3023;DHT22;1521;53.584;9.938;2023-05-16T02:04:32;10.60;99.90
3023;DHT22;1521;53.584;9.938;2023-05-16T02:06:59;10.60;99.90
3023;DHT22;1521;53.584;9.938;2023-05-16T02:09:26;10.60;99.90
3023;DHT22;1521;53.584;9.938;2023-05-16T02:11:52;10.50;99.90
3023;DHT22;1521;53.584;9.938;2023-05-16T02:14:17;10.50;99.90
3023;DHT22;1521;53.584;9.938;2023-05-16T02:16:43;10.50;99.90
3023;DHT22;1521;53.584;9.938;2023-05-16T02:19:08;10.50;99.90
3023;DHT22;1521;53.584;9.938;2023-05-16T02:21:35;10.50;99.90
3023;DHT22;1521;53.584;9.938;2023-05-16T02:24:00;10.50;99.90
3023;DHT22;1521;53.584;9.938;2023-05-16T02:26:26;10.40;99.90
3023;DHT22;1521;53.584;9.938;2023-05-16T02:28:51;10.40;99.90
3023;DHT22;1521;53.584;9.938;2023-05-16T02:31:28;10.40;93.00
3023;DHT22;1521;53.584;9.938;2023-05-16T02:33:54;10.50;94.70
3023;DHT22;1521;53.584;9.938;2023-05-16T02:36:19;10.50;46.70
3023;DHT22;1521;53.584;9.938;2023-05-16T02:38:46;10.50;42.00
3023;DHT22;1521;53.584;9.938;2023-05-16T02:41:11;10.40;27.70
3023;DHT22;1521;53.584;9.938;2023-05-16T02:43:37;10.40;35.60
3023;DHT22;1521;53.584;9.938;2023-05-16T02:46:23;10.30;15.00
3023;DHT22;1521;53.584;9.938;2023-05-16T02:48:49;10.40;25.40
3023;DHT22;1521;53.584;9.938;2023-05-16T02:51:16;10.40;23.10
3023;DHT22;1521;53.584;9.938;2023-05-16T02:53:41;10.40;11.20
3023;DHT22;1521;53.584;9.938;2023-05-16T02:56:07;10.40;1.00
3023;DHT22;1521;53.584;9.938;2023-05-16T02:58:33;10.40;1.00
3023;DHT22;1521;53.584;9.938;2023-05-16T03:00:58;10.40;1.00
3023;DHT22;1521;53.584;9.938;2023-05-16T03:03:24;10.30;1.00
3023;DHT22;1521;53.584;9.938;2023-05-16T03:05:49;10.30;1.00
3023;DHT22;1521;53.584;9.938;2023-05-16T03:08:16;10.20;1.00
3023;DHT22;1521;53.584;9.938;2023-05-16T03:10:41;10.30;1.00
3023;DHT22;1521;53.584;9.938;2023-05-16T03:13:07;10.30;1.00
3023;DHT22;1521;53.584;9.938;2023-05-16T03:15:32;10.30;1.00
3023;DHT22;1521;53.584;9.938;2023-05-16T03:17:58;10.20;1.00
3023;DHT22;1521;53.584;9.938;2023-05-16T03:20:23;10.20;1.00
3023;DHT22;1521;53.584;9.938;2023-05-16T03:22:49;10.30;1.00
3023;DHT22;1521;53.584;9.938;2023-05-16T03:25:15;10.30;1.00
3023;DHT22;1521;53.584;9.938;2023-05-16T03:27:41;10.20;1.00
3023;DHT22;1521;53.584;9.938;2023-05-16T03:30:07;10.20;1.00
3023;DHT22;1521;53.584;9.938;2023-05-16T03:32:33;10.20;1.00
3023;DHT22;1521;53.584;9.938;2023-05-16T03:34:58;10.10;1.00
3023;DHT22;1521;53.584;9.938;2023-05-16T03:37:24;10.10;1.00
3023;DHT22;1521;53.584;9.938;2023-05-16T03:39:50;10.20;1.00
3023;DHT22;1521;53.584;9.938;2023-05-16T03:42:16;10.10;1.00
3023;DHT22;1521;53.584;9.938;2023-05-16T03:44:43;10.20;1.00
3023;DHT22;1521;53.584;9.938;2023-05-16T03:47:09;10.20;1.00
3023;DHT22;1521;53.584;9.938;2023-05-16T03:49:34;10.10;1.00
3023;DHT22;1521;53.584;9.938;2023-05-16T03:52:04;10.20;1.00
3023;DHT22;1521;53.584;9.938;2023-05-16T03:54:30;10.20;1.00
3023;DHT22;1521;53.584;9.938;2023-05-16T03:56:56;10.20;1.00
3023;DHT22;1521;53.584;9.938;2023-05-16T03:59:21;10.20;1.00
3023;DHT22;1521;53.584;9.938;2023-05-16T04:01:48;10.20;1.00
3023;DHT22;1521;53.584;9.938;2023-05-16T04:04:14;10.20;1.00
3023;DHT22;1521;53.584;9.938;2023-05-16T04:06:40;10.20;1.00
3023;DHT22;1521;53.584;9.938;2023-05-16T04:09:05;10.20;1.00
3023;DHT22;1521;53.584;9.938;2023-05-16T04:11:31;10.10;1.00
3023;DHT22;1521;53.584;9.938;2023-05-16T04:13:58;10.10;1.00
3023;DHT22;1521;53.584;9.938;2023-05-16T04:16:24;10.20;1.00
3023;DHT22;1521;53.584;9.938;2023-05-16T04:18:49;10.20;1.00
3023;DHT22;1521;53.584;9.938;2023-05-16T04:21:15;10.20;1.00
3023;DHT22;1521;53.584;9.938;2023-05-16T04:23:40;10.10;1.00
3023;DHT22;1521;53.584;9.938;2023-05-16T04:26:06;10.10;1.00
3023;DHT22;1521;53.584;9.938;2023-05-16T04:28:32;10.10;1.00
3023;DHT22;1521;53.584;9.938;2023-05-16T04:30:58;10.20;1.00
3023;DHT22;1521;53.584;9.938;2023-05-16T04:33:24;10.20;1.00
3023;DHT22;1521;53.584;9.938;2023-05-16T04:35:49;10.10;1.00
3023;DHT22;1521;53.584;9.938;2023-05-16T04:38:17;10.20;1.00
3023;DHT22;1521;53.584;9.938;2023-05-16T04:40:42;10.20;1.00
3023;DHT22;1521;53.584;9.938;2023-05-16T04:43:08;10.30;1.00
3023;DHT22;1521;53.584;9.938;2023-05-16T04:45:34;10.20;1.00
3023;DHT22;1521;53.584;9.938;2023-05-16T04:48:00;10.20;1.00
3023;DHT22;1521;53.584;9.938;2023-05-16T04:50:26;10.10;1.00
3023;DHT22;1521;53.584;9.938;2023-05-16T04:52:51;10.10;1.00
3023;DHT22;1521;53.584;9.938;2023-05-16T04:55:17;10.20;1.00
3023;DHT22;1521;53.584;9.938;2023-05-16T04:57:42;10.30;1.00
3023;DHT22;1521;53.584;9.938;2023-05-16T05:00:08;10.40;1.00
3023;DHT22;1521;53.584;9.938;2023-05-16T05:02:37;10.50;1.00
3023;DHT22;1521;53.584;9.938;2023-05-16T05:05:03;10.60;1.00
3023;DHT22;1521;53.584;9.938;2023-05-16T05:07:30;10.60;1.00
3023;DHT22;1521;53.584;9.938;2023-05-16T05:09:55;10.60;1.00
3023;DHT22;1521;53.584;9.938;2023-05-16T05:12:21;10.60;1.00
3023;DHT22;1521;53.584;9.938;2023-05-16T05:14:47;10.60;1.00
3023;DHT22;1521;53.584;9.938;2023-05-16T05:17:12;10.70;1.00
3023;DHT22;1521;53.584;9.938;2023-05-16T05:19:38;10.90;1.00
3023;DHT22;1521;53.584;9.938;2023-05-16T05:22:04;11.00;1.00
3023;DHT22;1521;53.584;9.938;2023-05-16T05:24:29;11.20;1.00
3023;DHT22;1521;53.584;9.938;2023-05-16T05:26:55;11.30;1.00
3023;DHT22;1521;53.584;9.938;2023-05-16T05:29:21;11.50;1.00
3023;DHT22;1521;53.584;9.938;2023-05-16T05:31:47;11.60;1.00
3023;DHT22;1521;53.584;9.938;2023-05-16T05:34:12;11.40;1.00
3023;DHT22;1521;53.584;9.938;2023-05-16T05:36:38;11.40;1.00
3023;DHT22;1521;53.584;9.938;2023-05-16T05:39:04;11.40;1.00
3023;DHT22;1521;53.584;9.938;2023-05-16T05:41:30;11.40;1.00
3023;DHT22;1521;53.584;9.938;2023-05-16T05:43:55;11.40;1.00
3023;DHT22;1521;53.584;9.938;2023-05-16T05:46:21;11.40;1.00
3023;DHT22;1521;53.584;9.938;2023-05-16T05:48:47;11.70;1.00
3023;DHT22;1521;53.584;9.938;2023-05-16T05:51:12;11.90;1.00
3023;DHT22;1521;53.584;9.938;2023-05-16T05:53:39;12.20;1.00
3023;DHT22;1521;53.584;9.938;2023-05-16T05:56:05;12.60;1.00
3023;DHT22;1521;53.584;9.938;2023-05-16T05:58:31;12.70;1.00
3023;DHT22;1521;53.584;9.938;2023-05-16T06:00:56;12.80;1.00
3023;DHT22;1521;53.584;9.938;2023-05-16T06:03:22;12.80;1.00
3023;DHT22;1521;53.584;9.938;2023-05-16T06:05:47;12.60;1.00
3023;DHT22;1521;53.584;9.938;2023-05-16T06:08:13;12.40;1.00
3023;DHT22;1521;53.584;9.938;2023-05-16T06:10:39;12.50;1.00
3023;DHT22;1521;53.584;9.938;2023-05-16T06:13:04;12.50;1.00
3023;DHT22;1521;53.584;9.938;2023-05-16T06:15:30;12.70;1.00
3023;DHT22;1521;53.584;9.938;2023-05-16T06:17:56;12.50;1.00
3023;DHT22;1521;53.584;9.938;2023-05-16T06:20:22;12.20;1.00
3023;DHT22;1521;53.584;9.938;2023-05-16T06:22:48;12.00;1.00
3023;DHT22;1521;53.584;9.938;2023-05-16T06:25:13;11.70;1.00
3023;DHT22;1521;53.584;9.938;2023-05-16T06:27:39;11.60;1.00
3023;DHT22;1521;53.584;9.938;2023-05-16T06:30:05;11.40;1.00
3023;DHT22;1521;53.584;9.938;2023-05-16T06:32:31;11.30;1.00
3023;DHT22;1521;53.584;9.938;2023-05-16T06:34:56;11.40;1.00
3023;DHT22;1521;53.584;9.938;2023-05-16T06:37:22;11.30;1.00
3023;DHT22;1521;53.584;9.938;2023-05-16T06:39:48;11.10;1.00
3023;DHT22;1521;53.584;9.938;2023-05-16T06:42:13;11.10;1.00
3023;DHT22;1521;53.584;9.938;2023-05-16T06:44:39;11.10;1.00
3023;DHT22;1521;53.584;9.938;2023-05-16T06:47:05;11.00;1.00
3023;DHT22;1521;53.584;9.938;2023-05-16T06:49:31;11.30;1.00
3023;DHT22;1521;53.584;9.938;2023-05-16T06:51:57;11.90;1.00
3023;DHT22;1521;53.584;9.938;2023-05-16T06:54:23;12.70;1.00
3023;DHT22;1521;53.584;9.938;2023-05-16T06:56:48;13.20;1.00
3023;DHT22;1521;53.584;9.938;2023-05-16T06:59:14;13.30;1.00
3023;DHT22;1521;53.584;9.938;2023-05-16T07:01:39;12.90;1.00
3023;DHT22;1521;53.584;9.938;2023-05-16T07:04:06;12.50;1.00
3023;DHT22;1521;53.584;9.938;2023-05-16T07:06:31;12.30;1.00
3023;DHT22;1521;53.584;9.938;2023-05-16T07:08:57;12.30;1.00
3023;DHT22;1521;53.584;9.938;2023-05-16T07:11:22;12.50;1.00
3023;DHT22;1521;53.584;9.938;2023-05-16T07:13:48;12.80;1.00
3023;DHT22;1521;53.584;9.938;2023-05-16T07:16:14;13.20;1.00
3023;DHT22;1521;53.584;9.938;2023-05-16T07:18:39;13.50;1.00
3023;DHT22;1521;53.584;9.938;2023-05-16T07:21:05;13.80;1.00
3023;DHT22;1521;53.584;9.938;2023-05-16T07:23:31;14.10;1.00
3023;DHT22;1521;53.584;9.938;2023-05-16T07:25:57;14.30;1.00
3023;DHT22;1521;53.584;9.938;2023-05-16T07:28:23;14.40;1.00
3023;DHT22;1521;53.584;9.938;2023-05-16T07:30:48;14.70;1.00
3023;DHT22;1521;53.584;9.938;2023-05-16T07:33:14;14.70;1.00
3023;DHT22;1521;53.584;9.938;2023-05-16T07:35:40;14.50;1.00
3023;DHT22;1521;53.584;9.938;2023-05-16T07:38:05;14.70;1.00
3023;DHT22;1521;53.584;9.938;2023-05-16T07:40:31;15.00;1.00
3023;DHT22;1521;53.584;9.938;2023-05-16T07:42:56;14.80;1.00
3023;DHT22;1521;53.584;9.938;2023-05-16T07:45:22;14.60;1.00
3023;DHT22;1521;53.584;9.938;2023-05-16T07:47:48;14.70;1.00
3023;DHT22;1521;53.584;9.938;2023-05-16T07:50:14;14.20;1.00
3023;DHT22;1521;53.584;9.938;2023-05-16T07:52:39;13.60;1.00
3023;DHT22;1521;53.584;9.938;2023-05-16T07:55:05;13.80;1.00
3023;DHT22;1521;53.584;9.938;2023-05-16T07:57:31;14.30;1.00
3023;DHT22;1521;53.584;9.938;2023-05-16T07:59:57;14.90;1.00
3023;DHT22;1521;53.584;9.938;2023-05-16T08:02:23;15.00;1.00
3023;DHT22;1521;53.584;9.938;2023-05-16T08:04:50;15.20;1.00
3023;DHT22;1521;53.584;9.938;2023-05-16T08:07:16;15.40;1.00
3023;DHT22;1521;53.584;9.938;2023-05-16T08:09:41;15.60;1.00
3023;DHT22;1521;53.584;9.938;2023-05-16T08:12:07;16.10;1.00
3023;DHT22;1521;53.584;9.938;2023-05-16T08:14:33;16.60;1.00
3023;DHT22;1521;53.584;9.938;2023-05-16T08:16:59;16.80;1.00
3023;DHT22;1521;53.584;9.938;2023-05-16T08:19:25;16.80;1.00
3023;DHT22;1521;53.584;9.938;2023-05-16T08:21:51;16.20;1.00
3023;DHT22;1521;53.584;9.938;2023-05-16T08:24:16;15.20;1.00
3023;DHT22;1521;53.584;9.938;2023-05-16T08:26:42;14.50;1.00
3023;DHT22;1521;53.584;9.938;2023-05-16T08:29:08;13.90;1.00
3023;DHT22;1521;53.584;9.938;2023-05-16T08:31:33;13.60;1.00
3023;DHT22;1521;53.584;9.938;2023-05-16T08:33:59;13.50;1.00
3023;DHT22;1521;53.584;9.938;2023-05-16T08:36:26;13.90;1.00
3023;DHT22;1521;53.584;9.938;2023-05-16T08:38:52;14.70;1.00
3023;DHT22;1521;53.584;9.938;2023-05-16T08:41:18;15.80;1.00
3023;DHT22;1521;53.584;9.938;2023-05-16T08:43:43;16.30;1.00
3023;DHT22;1521;53.584;9.938;2023-05-16T08:46:09;16.80;1.00
3023;DHT22;1521;53.584;9.938;2023-05-16T08:48:35;17.20;1.00
3023;DHT22;1521;53.584;9.938;2023-05-16T08:51:05;17.50;1.00
3023;DHT22;1521;53.584;9.938;2023-05-16T08:53:39;17.00;1.00
3023;DHT22;1521;53.584;9.938;2023-05-16T08:56:10;17.20;1.00
3023;DHT22;1521;53.584;9.938;2023-05-16T08:58:37;16.80;1.00
3023;DHT22;1521;53.584;9.938;2023-05-16T09:01:04;17.20;1.00
3023;DHT22;1521;53.584;9.938;2023-05-16T09:03:34;17.30;1.00
3023;DHT22;1521;53.584;9.938;2023-05-16T09:06:01;16.50;1.00
3023;DHT22;1521;53.584;9.938;2023-05-16T09:08:27;16.40;1.00
3023;DHT22;1521;53.584;9.938;2023-05-16T09:10:52;16.50;1.00
3023;DHT22;1521;53.584;9.938;2023-05-16T09:13:18;17.10;1.00
3023;DHT22;1521;53.584;9.938;2023-05-16T09:15:44;16.90;1.00
3023;DHT22;1521;53.584;9.938;2023-05-16T09:18:11;16.40;1.00
3023;DHT22;1521;53.584;9.938;2023-05-16T09:20:42;16.30;1.00
3023;DHT22;1521;53.584;9.938;2023-05-16T09:23:11;16.90;1.00
3023;DHT22;1521;53.584;9.938;2023-05-16T09:25:36;17.30;1.00
3023;DHT22;1521;53.584;9.938;2023-05-16T09:28:04;17.60;1.00
3023;DHT22;1521;53.584;9.938;2023-05-16T09:30:31;16.60;1.00
3023;DHT22;1521;53.584;9.938;2023-05-16T09:32:58;15.90;1.00
3023;DHT22;1521;53.584;9.938;2023-05-16T09:35:24;15.80;1.00
3023;DHT22;1521;53.584;9.938;2023-05-16T09:37:50;16.10;1.00
3023;DHT22;1521;53.584;9.938;2023-05-16T09:40:22;16.60;1.00
3023;DHT22;1521;53.584;9.938;2023-05-16T09:43:04;17.10;99.90
3023;DHT22;1521;53.584;9.938;2023-05-16T09:45:31;17.60;99.90
3023;DHT22;1521;53.584;9.938;2023-05-16T09:48:05;18.40;99.90
3023;DHT22;1521;53.584;9.938;2023-05-16T09:50:32;18.50;99.90
3023;DHT22;1521;53.584;9.938;2023-05-16T09:52:59;17.60;99.90
3023;DHT22;1521;53.584;9.938;2023-05-16T09:55:24;16.30;99.90
3023;DHT22;1521;53.584;9.938;2023-05-16T09:57:50;15.50;99.90
3023;DHT22;1521;53.584;9.938;2023-05-16T10:00:16;15.40;99.90
3023;DHT22;1521;53.584;9.938;2023-05-16T10:02:42;15.10;99.90
3023;DHT22;1521;53.584;9.938;2023-05-16T10:05:08;14.40;99.90
3023;DHT22;1521;53.584;9.938;2023-05-16T10:07:34;14.00;99.90
3023;DHT22;1521;53.584;9.938;2023-05-16T10:10:03;13.80;1.00
3023;DHT22;1521;53.584;9.938;2023-05-16T10:12:29;14.30;1.00
3023;DHT22;1521;53.584;9.938;2023-05-16T10:14:56;15.30;1.00
3023;DHT22;1521;53.584;9.938;2023-05-16T10:17:23;15.80;1.00
3023;DHT22;1521;53.584;9.938;2023-05-16T10:19:50;15.80;1.00
3023;DHT22;1521;53.584;9.938;2023-05-16T10:22:17;15.60;1.00
3023;DHT22;1521;53.584;9.938;2023-05-16T10:27:18;16.00;1.00
3023;DHT22;1521;53.584;9.938;2023-05-16T10:29:44;17.30;1.00
3023;DHT22;1521;53.584;9.938;2023-05-16T10:32:11;18.30;1.00
3023;DHT22;1521;53.584;9.938;2023-05-16T10:34:38;18.60;99.90
3023;DHT22;1521;53.584;9.938;2023-05-16T10:37:05;18.40;99.90
3023;DHT22;1521;53.584;9.938;2023-05-16T10:39:31;18.00;99.90
3023;DHT22;1521;53.584;9.938;2023-05-16T10:41:57;17.10;99.90
3023;DHT22;1521;53.584;9.938;2023-05-16T10:44:24;17.30;99.90
3023;DHT22;1521;53.584;9.938;2023-05-16T10:46:50;17.10;99.90
3023;DHT22;1521;53.584;9.938;2023-05-16T10:49:20;17.10;99.90
3023;DHT22;1521;53.584;9.938;2023-05-16T10:52:09;16.90;99.90
3023;DHT22;1521;53.584;9.938;2023-05-16T10:54:42;16.70;99.90
3023;DHT22;1521;53.584;9.938;2023-05-16T10:57:10;15.80;99.90
3023;DHT22;1521;53.584;9.938;2023-05-16T10:59:44;15.40;99.90
3023;DHT22;1521;53.584;9.938;2023-05-16T11:02:31;14.70;99.90
3023;DHT22;1521;53.584;9.938;2023-05-16T11:04:59;14.50;99.90
3023;DHT22;1521;53.584;9.938;2023-05-16T11:07:33;14.60;99.90
3023;DHT22;1521;53.584;9.938;2023-05-16T11:10:07;15.20;1.00
3023;DHT22;1521;53.584;9.938;2023-05-16T11:15:17;17.10;99.90
3023;DHT22;1521;53.584;9.938;2023-05-16T11:17:43;17.00;99.90
3023;DHT22;1521;53.584;9.938;2023-05-16T11:20:24;17.50;99.90
3023;DHT22;1521;53.584;9.938;2023-05-16T11:22:50;17.70;99.90
3023;DHT22;1521;53.584;9.938;2023-05-16T11:25:16;16.80;99.90
3023;DHT22;1521;53.584;9.938;2023-05-16T11:27:59;16.40;99.90
3023;DHT22;1521;53.584;9.938;2023-05-16T11:30:25;17.30;99.90
3023;DHT22;1521;53.584;9.938;2023-05-16T11:32:50;18.10;99.90
3023;DHT22;1521;53.584;9.938;2023-05-16T11:35:17;18.40;99.90
3023;DHT22;1521;53.584;9.938;2023-05-16T11:37:46;18.20;99.90
3023;DHT22;1521;53.584;9.938;2023-05-16T11:40:13;17.80;99.90
3023;DHT22;1521;53.584;9.938;2023-05-16T11:45:16;17.50;99.90
3023;DHT22;1521;53.584;9.938;2023-05-16T11:47:44;17.90;99.90
3023;DHT22;1521;53.584;9.938;2023-05-16T11:50:14;18.30;99.90
3023;DHT22;1521;53.584;9.938;2023-05-16T11:52:43;18.90;99.90
3023;DHT22;1521;53.584;9.938;2023-05-16T11:55:09;19.00;99.90
3023;DHT22;1521;53.584;9.938;2023-05-16T11:57:38;19.00;99.90
3023;DHT22;1521;53.584;9.938;2023-05-16T12:00:17;19.20;99.90
3023;DHT22;1521;53.584;9.938;2023-05-16T12:02:44;19.10;99.90
3023;DHT22;1521;53.584;9.938;2023-05-16T12:05:12;19.30;99.90
3023;DHT22;1521;53.584;9.938;2023-05-16T12:07:38;18.70;99.90
3023;DHT22;1521;53.584;9.938;2023-05-16T12:10:10;17.70;99.90
3023;DHT22;1521;53.584;9.938;2023-05-16T12:12:38;17.60;99.90
3023;DHT22;1521;53.584;9.938;2023-05-16T12:15:05;17.70;99.90
3023;DHT22;1521;53.584;9.938;2023-05-16T12:17:35;17.90;99.90
3023;DHT22;1521;53.584;9.938;2023-05-16T12:20:02;18.40;99.90
3023;DHT22;1521;53.584;9.938;2023-05-16T12:22:33;18.30;99.90
3023;DHT22;1521;53.584;9.938;2023-05-16T12:25:17;17.90;99.90
3023;DHT22;1521;53.584;9.938;2023-05-16T12:27:42;17.90;99.90
3023;DHT22;1521;53.584;9.938;2023-05-16T12:30:08;17.50;99.90
3023;DHT22;1521;53.584;9.938;2023-05-16T12:32:37;17.60;99.90
3023;DHT22;1521;53.584;9.938;2023-05-16T12:35:03;17.70;99.90
3023;DHT22;1521;53.584;9.938;2023-05-16T12:37:28;18.20;99.90
3023;DHT22;1521;53.584;9.938;2023-05-16T12:39:59;18.60;99.90
3023;DHT22;1521;53.584;9.938;2023-05-16T12:42:26;18.40;99.90
3023;DHT22;1521;53.584;9.938;2023-05-16T12:44:55;18.40;99.90
3023;DHT22;1521;53.584;9.938;2023-05-16T12:47:21;18.70;99.90
3023;DHT22;1521;53.584;9.938;2023-05-16T12:49:47;18.80;99.90
3023;DHT22;1521;53.584;9.938;2023-05-16T12:52:19;18.20;99.90
3023;DHT22;1521;53.584;9.938;2023-05-16T12:54:46;17.30;1.00
3023;DHT22;1521;53.584;9.938;2023-05-16T12:57:12;16.30;99.90
3023;DHT22;1521;53.584;9.938;2023-05-16T12:59:37;15.50;99.90
3023;DHT22;1521;53.584;9.938;2023-05-16T13:02:03;15.50;99.90
3023;DHT22;1521;53.584;9.938;2023-05-16T13:04:29;15.30;99.90
3023;DHT22;1521;53.584;9.938;2023-05-16T13:06:55;15.20;1.00
3023;DHT22;1521;53.584;9.938;2023-05-16T13:09:22;15.60;99.90
3023;DHT22;1521;53.584;9.938;2023-05-16T13:11:48;15.90;99.90
3023;DHT22;1521;53.584;9.938;2023-05-16T13:14:14;16.50;99.90
3023;DHT22;1521;53.584;9.938;2023-05-16T13:16:40;16.60;99.90
3023;DHT22;1521;53.584;9.938;2023-05-16T13:19:05;16.90;99.90
3023;DHT22;1521;53.584;9.938;2023-05-16T13:21:32;17.40;99.90
3023;DHT22;1521;53.584;9.938;2023-05-16T13:23:57;17.30;99.90
3023;DHT22;1521;53.584;9.938;2023-05-16T13:26:23;16.30;99.90
3023;DHT22;1521;53.584;9.938;2023-05-16T13:28:49;14.90;99.90
3023;DHT22;1521;53.584;9.938;2023-05-16T13:31:19;14.20;99.90
3023;DHT22;1521;53.584;9.938;2023-05-16T13:33:46;13.80;99.90
3023;DHT22;1521;53.584;9.938;2023-05-16T13:36:12;13.60;99.90
3023;DHT22;1521;53.584;9.938;2023-05-16T13:38:37;14.30;99.90
3023;DHT22;1521;53.584;9.938;2023-05-16T13:41:03;15.00;99.90
3023;DHT22;1521;53.584;9.938;2023-05-16T13:43:28;16.00;99.90
3023;DHT22;1521;53.584;9.938;2023-05-16T13:45:54;16.50;99.90
3023;DHT22;1521;53.584;9.938;2023-05-16T13:48:20;16.80;99.90
3023;DHT22;1521;53.584;9.938;2023-05-16T13:50:46;17.40;99.90
3023;DHT22;1521;53.584;9.938;2023-05-16T13:53:11;16.60;99.90
3023;DHT22;1521;53.584;9.938;2023-05-16T13:55:37;15.50;99.90
3023;DHT22;1521;53.584;9.938;2023-05-16T13:58:02;14.50;99.90
3023;DHT22;1521;53.584;9.938;2023-05-16T14:00:28;13.90;1.00
3023;DHT22;1521;53.584;9.938;2023-05-16T14:02:55;13.70;99.90
3023;DHT22;1521;53.584;9.938;2023-05-16T14:05:21;13.80;1.00
3023;DHT22;1521;53.584;9.938;2023-05-16T14:07:47;13.80;99.90
3023;DHT22;1521;53.584;9.938;2023-05-16T14:10:12;13.90;99.90
3023;DHT22;1521;53.584;9.938;2023-05-16T14:12:38;14.00;99.90
3023;DHT22;1521;53.584;9.938;2023-05-16T14:15:05;14.20;99.90
3023;DHT22;1521;53.584;9.938;2023-05-16T14:17:30;14.30;99.90
3023;DHT22;1521;53.584;9.938;2023-05-16T14:19:57;14.50;99.90
3023;DHT22;1521;53.584;9.938;2023-05-16T14:22:22;14.90;99.90
3023;DHT22;1521;53.584;9.938;2023-05-16T14:24:48;15.40;99.90
3023;DHT22;1521;53.584;9.938;2023-05-16T14:27:13;16.10;99.90
3023;DHT22;1521;53.584;9.938;2023-05-16T14:29:41;16.60;99.90
3023;DHT22;1521;53.584;9.938;2023-05-16T14:32:06;16.70;99.90
3023;DHT22;1521;53.584;9.938;2023-05-16T14:34:32;16.70;99.90
3023;DHT22;1521;53.584;9.938;2023-05-16T14:36:58;16.70;99.90
3023;DHT22;1521;53.584;9.938;2023-05-16T14:39:24;16.10;99.90
3023;DHT22;1521;53.584;9.938;2023-05-16T14:41:50;15.50;99.90
3023;DHT22;1521;53.584;9.938;2023-05-16T14:44:16;14.80;99.90
3023;DHT22;1521;53.584;9.938;2023-05-16T14:46:41;14.10;99.90
3023;DHT22;1521;53.584;9.938;2023-05-16T14:49:07;13.80;99.90
3023;DHT22;1521;53.584;9.938;2023-05-16T14:51:33;13.40;99.90
3023;DHT22;1521;53.584;9.938;2023-05-16T14:53:59;13.40;99.90
3023;DHT22;1521;53.584;9.938;2023-05-16T14:56:25;14.00;99.90
3023;DHT22;1521;53.584;9.938;2023-05-16T14:58:51;14.80;99.90
3023;DHT22;1521;53.584;9.938;2023-05-16T15:01:16;15.40;99.90
3023;DHT22;1521;53.584;9.938;2023-05-16T15:03:42;15.20;99.90
3023;DHT22;1521;53.584;9.938;2023-05-16T15:06:07;14.70;99.90
3023;DHT22;1521;53.584;9.938;2023-05-16T15:08:33;14.20;99.90
3023;DHT22;1521;53.584;9.938;2023-05-16T15:10:59;13.70;99.90
3023;DHT22;1521;53.584;9.938;2023-05-16T15:13:25;13.60;99.90
3023;DHT22;1521;53.584;9.938;2023-05-16T15:15:51;14.00;99.90
3023;DHT22;1521;53.584;9.938;2023-05-16T15:18:16;14.60;99.90
3023;DHT22;1521;53.584;9.938;2023-05-16T15:20:42;15.50;99.90
3023;DHT22;1521;53.584;9.938;2023-05-16T15:23:08;15.90;99.90
3023;DHT22;1521;53.584;9.938;2023-05-16T15:25:34;15.80;99.90
3023;DHT22;1521;53.584;9.938;2023-05-16T15:27:59;15.70;99.90
3023;DHT22;1521;53.584;9.938;2023-05-16T15:30:25;16.00;99.90
3023;DHT22;1521;53.584;9.938;2023-05-16T15:32:51;16.10;99.90
3023;DHT22;1521;53.584;9.938;2023-05-16T15:35:16;15.70;99.90
3023;DHT22;1521;53.584;9.938;2023-05-16T15:37:42;14.80;99.90
3023;DHT22;1521;53.584;9.938;2023-05-16T15:40:08;14.30;99.90
3023;DHT22;1521;53.584;9.938;2023-05-16T15:42:35;13.70;99.90
3023;DHT22;1521;53.584;9.938;2023-05-16T15:45:01;13.20;99.90
3023;DHT22;1521;53.584;9.938;2023-05-16T15:47:27;12.70;1.00
3023;DHT22;1521;53.584;9.938;2023-05-16T15:49:52;12.30;1.00
3023;DHT22;1521;53.584;9.938;2023-05-16T15:52:18;12.40;1.00
3023;DHT22;1521;53.584;9.938;2023-05-16T15:54:43;12.60;1.00
3023;DHT22;1521;53.584;9.938;2023-05-16T15:57:09;12.90;1.00
3023;DHT22;1521;53.584;9.938;2023-05-16T15:59:35;13.10;1.00
3023;DHT22;1521;53.584;9.938;2023-05-16T16:02:00;13.00;1.00
3023;DHT22;1521;53.584;9.938;2023-05-16T16:04:29;12.90;1.00
3023;DHT22;1521;53.584;9.938;2023-05-16T16:06:55;12.70;1.00
3023;DHT22;1521;53.584;9.938;2023-05-16T16:09:21;12.60;1.00
3023;DHT22;1521;53.584;9.938;2023-05-16T16:11:46;12.70;1.00
3023;DHT22;1521;53.584;9.938;2023-05-16T16:14:12;12.60;1.00
3023;DHT22;1521;53.584;9.938;2023-05-16T16:16:37;12.50;1.00
3023;DHT22;1521;53.584;9.938;2023-05-16T16:19:05;12.50;1.00
3023;DHT22;1521;53.584;9.938;2023-05-16T16:21:31;12.80;1.00